sensor_id;sensor_type;location;lat;lon;timestamp;temperature;humidity
41168;DHT22;26906;45.658;9.272;2022-09-09T04:33:21;21.90;99.90
41168;DHT22;26906;45.658;9.272;2022-09-09T04:35:50;21.40;99.90
41168;DHT22;26906;45.658;9.272;2022-09-09T04:38:20;21.10;99.90
41168;DHT22;26906;45.658;9.272;2022-09-09T04:40:50;21.00;99.90
41168;DHT22;26906;45.658;9.272;2022-09-09T04:43:17;21.00;99.90
41168;DHT22;26906;45.658;9.272;2022-09-09T04:45:48;21.00;99.90
41168;DHT22;26906;45.658;9.272;2022-09-09T04:48:14;20.90;99.90
41168;DHT22;26906;45.658;9.272;2022-09-09T04:50:40;20.80;99.90
41168;DHT22;26906;45.658;9.272;2022-09-09T04:53:09;20.70;99.90
41168;DHT22;26906;45.658;9.272;2022-09-09T04:55:37;20.80;99.90
41168;DHT22;26906;45.658;9.272;2022-09-09T04:58:07;20.90;99.90
41168;DHT22;26906;45.658;9.272;2022-09-09T05:00:35;21.10;99.90
41168;DHT22;26906;45.658;9.272;2022-09-09T05:03:04;21.20;99.90
41168;DHT22;26906;45.658;9.272;2022-09-09T05:05:32;20.90;99.90
41168;DHT22;26906;45.658;9.272;2022-09-09T05:08:04;20.80;99.90
41168;DHT22;26906;45.658;9.272;2022-09-09T05:10:32;20.70;99.90
41168;DHT22;26906;45.658;9.272;2022-09-09T05:12:58;20.80;99.90
41168;DHT22;26906;45.658;9.272;2022-09-09T05:15:27;20.70;99.90
41168;DHT22;26906;45.658;9.272;2022-09-09T05:17:57;20.70;99.90
41168;DHT22;26906;45.658;9.272;2022-09-09T05:20:24;20.80;99.90
41168;DHT22;26906;45.658;9.272;2022-09-09T05:22:53;20.80;99.90
41168;DHT22;26906;45.658;9.272;2022-09-09T05:25:19;21.00;99.90
41168;DHT22;26906;45.658;9.272;2022-09-09T05:27:45;21.10;99.90
41168;DHT22;26906;45.658;9.272;2022-09-09T05:30:11;21.20;99.90
41168;DHT22;26906;45.658;9.272;2022-09-09T05:32:37;21.20;99.90
41168;DHT22;26906;45.658;9.272;2022-09-09T05:35:03;21.20;99.90
41168;DHT22;26906;45.658;9.272;2022-09-09T05:37:31;21.30;99.90
41168;DHT22;26906;45.658;9.272;2022-09-09T05:39:57;21.20;99.90
41168;DHT22;26906;45.658;9.272;2022-09-09T05:42:23;21.20;99.90
41168;DHT22;26906;45.658;9.272;2022-09-09T05:44:49;21.30;99.90
41168;DHT22;26906;45.658;9.272;2022-09-09T05:47:16;21.30;99.90
41168;DHT22;26906;45.658;9.272;2022-09-09T05:49:43;21.30;99.90
41168;DHT22;26906;45.658;9.272;2022-09-09T05:52:09;21.30;99.90
41168;DHT22;26906;45.658;9.272;2022-09-09T05:54:35;21.10;99.90
41168;DHT22;26906;45.658;9.272;2022-09-09T05:57:03;21.10;99.90
41168;DHT22;26906;45.658;9.272;2022-09-09T05:59:31;21.20;99.90
41168;DHT22;26906;45.658;9.272;2022-09-09T06:02:00;21.20;99.90
41168;DHT22;26906;45.658;9.272;2022-09-09T06:04:31;21.30;99.90
41168;DHT22;26906;45.658;9.272;2022-09-09T06:06:58;21.30;99.90
41168;DHT22;26906;45.658;9.272;2022-09-09T06:09:24;21.30;99.90
41168;DHT22;26906;45.658;9.272;2022-09-09T06:11:50;21.50;99.90
41168;DHT22;26906;45.658;9.272;2022-09-09T06:14:16;21.50;99.90
41168;DHT22;26906;45.658;9.272;2022-09-09T06:16:45;21.70;99.90
41168;DHT22;26906;45.658;9.272;2022-09-09T06:19:17;21.60;99.90
41168;DHT22;26906;45.658;9.272;2022-09-09T06:21:43;21.60;99.90
41168;DHT22;26906;45.658;9.272;2022-09-09T06:24:11;21.60;99.90
41168;DHT22;26906;45.658;9.272;2022-09-09T06:26:39;21.50;99.90
41168;DHT22;26906;45.658;9.272;2022-09-09T06:29:12;21.20;99.90
41168;DHT22;26906;45.658;9.272;2022-09-09T06:31:39;20.90;99.90
41168;DHT22;26906;45.658;9.272;2022-09-09T06:34:14;20.90;99.90
41168;DHT22;26906;45.658;9.272;2022-09-09T06:36:45;20.80;99.90
41168;DHT22;26906;45.658;9.272;2022-09-09T06:39:12;20.90;99.90
41168;DHT22;26906;45.658;9.272;2022-09-09T06:41:39;21.00;99.90
41168;DHT22;26906;45.658;9.272;2022-09-09T06:44:09;21.10;99.90
41168;DHT22;26906;45.658;9.272;2022-09-09T06:46:40;21.20;99.90
41168;DHT22;26906;45.658;9.272;2022-09-09T06:49:08;21.40;99.90
41168;DHT22;26906;45.658;9.272;2022-09-09T06:51:36;21.50;99.90
41168;DHT22;26906;45.658;9.272;2022-09-09T06:54:04;21.70;99.90
41168;DHT22;26906;45.658;9.272;2022-09-09T06:56:35;21.60;99.90
41168;DHT22;26906;45.658;9.272;2022-09-09T06:59:07;21.60;99.90
41168;DHT22;26906;45.658;9.272;2022-09-09T07:01:36;21.50;99.90
41168;DHT22;26906;45.658;9.272;2022-09-09T07:04:05;21.40;99.90
41168;DHT22;26906;45.658;9.272;2022-09-09T07:06:40;21.60;99.90
41168;DHT22;26906;45.658;9.272;2022-09-09T07:09:09;21.70;99.90
41168;DHT22;26906;45.658;9.272;2022-09-09T07:11:42;22.00;99.90
41168;DHT22;26906;45.658;9.272;2022-09-09T07:14:09;22.20;99.90
41168;DHT22;26906;45.658;9.272;2022-09-09T07:16:35;22.20;99.90
41168;DHT22;26906;45.658;9.272;2022-09-09T07:19:03;22.10;99.90
41168;DHT22;26906;45.658;9.272;2022-09-09T07:21:31;22.00;99.90
41168;DHT22;26906;45.658;9.272;2022-09-09T07:23:57;22.10;99.90
41168;DHT22;26906;45.658;9.272;2022-09-09T07:26:29;22.20;99.90
41168;DHT22;26906;45.658;9.272;2022-09-09T07:28:57;22.40;99.90
41168;DHT22;26906;45.658;9.272;2022-09-09T07:31:32;22.50;99.90
41168;DHT22;26906;45.658;9.272;2022-09-09T07:33:59;22.90;99.90
41168;DHT22;26906;45.658;9.272;2022-09-09T07:36:37;23.00;99.90
41168;DHT22;26906;45.658;9.272;2022-09-09T07:39:08;23.00;99.90
41168;DHT22;26906;45.658;9.272;2022-09-09T07:41:43;23.10;99.90
41168;DHT22;26906;45.658;9.272;2022-09-09T07:44:14;23.10;99.90
41168;DHT22;26906;45.658;9.272;2022-09-09T07:46:42;23.00;99.90
41168;DHT22;26906;45.658;9.272;2022-09-09T07:49:10;23.10;99.90
41168;DHT22;26906;45.658;9.272;2022-09-09T07:51:38;23.10;99.90
41168;DHT22;26906;45.658;9.272;2022-09-09T07:54:07;23.00;99.90
41168;DHT22;26906;45.658;9.272;2022-09-09T07:56:36;22.90;99.90
41168;DHT22;26906;45.658;9.272;2022-09-09T07:59:03;23.00;99.90
41168;DHT22;26906;45.658;9.272;2022-09-09T08:01:40;23.20;99.90
41168;DHT22;26906;45.658;9.272;2022-09-09T08:04:10;23.40;99.90
41168;DHT22;26906;45.658;9.272;2022-09-09T08:06:50;23.80;99.90
41168;DHT22;26906;45.658;9.272;2022-09-09T08:09:19;24.10;99.90
41168;DHT22;26906;45.658;9.272;2022-09-09T08:11:49;24.40;99.90
41168;DHT22;26906;45.658;9.272;2022-09-09T08:14:16;23.80;99.90
41168;DHT22;26906;45.658;9.272;2022-09-09T08:16:47;23.20;99.90
41168;DHT22;26906;45.658;9.272;2022-09-09T08:19:16;23.30;99.90
41168;DHT22;26906;45.658;9.272;2022-09-09T08:21:45;23.50;99.90
41168;DHT22;26906;45.658;9.272;2022-09-09T08:24:12;23.70;99.90
41168;DHT22;26906;45.658;9.272;2022-09-09T08:26:43;23.80;99.90
41168;DHT22;26906;45.658;9.272;2022-09-09T08:29:12;23.80;99.90
41168;DHT22;26906;45.658;9.272;2022-09-09T08:31:42;23.60;99.90
41168;DHT22;26906;45.658;9.272;2022-09-09T08:34:08;23.30;99.90
41168;DHT22;26906;45.658;9.272;2022-09-09T08:36:39;23.30;99.90
41168;DHT22;26906;45.658;9.272;2022-09-09T08:39:07;23.30;99.90
41168;DHT22;26906;45.658;9.272;2022-09-09T08:44:52;24.10;99.90
41168;DHT22;26906;45.658;9.272;2022-09-09T08:50:26;24.70;99.90
41168;DHT22;26906;45.658;9.272;2022-09-09T08:53:14;24.90;99.90
41168;DHT22;26906;45.658;9.272;2022-09-09T08:58:17;26.00;99.90
41168;DHT22;26906;45.658;9.272;2022-09-09T09:17:03;27.60;99.90
41168;DHT22;26906;45.658;9.272;2022-09-09T09:19:31;27.00;99.90
41168;DHT22;26906;45.658;9.272;2022-09-09T09:27:15;26.50;99.90
41168;DHT22;26906;45.658;9.272;2022-09-09T09:29:48;26.80;99.90
41168;DHT22;26906;45.658;9.272;2022-09-09T09:32:18;26.80;99.90
41168;DHT22;26906;45.658;9.272;2022-09-09T09:34:55;26.50;99.90
41168;DHT22;26906;45.658;9.272;2022-09-09T09:37:35;26.20;99.90
41168;DHT22;26906;45.658;9.272;2022-09-09T09:42:36;26.50;99.90
41168;DHT22;26906;45.658;9.272;2022-09-09T09:45:32;27.00;99.90
41168;DHT22;26906;45.658;9.272;2022-09-09T09:48:08;26.90;99.90
41168;DHT22;26906;45.658;9.272;2022-09-09T09:53:33;27.20;99.90
41168;DHT22;26906;45.658;9.272;2022-09-09T09:56:11;27.30;99.90
41168;DHT22;26906;45.658;9.272;2022-09-09T10:01:32;27.50;99.90
41168;DHT22;26906;45.658;9.272;2022-09-09T10:04:22;27.90;99.90
41168;DHT22;26906;45.658;9.272;2022-09-09T10:06:51;27.80;99.90
41168;DHT22;26906;45.658;9.272;2022-09-09T10:09:27;27.80;99.90
41168;DHT22;26906;45.658;9.272;2022-09-09T10:14:55;28.20;99.90
41168;DHT22;26906;45.658;9.272;2022-09-09T10:20:44;28.30;99.90
41168;DHT22;26906;45.658;9.272;2022-09-09T10:28:57;29.50;99.90
41168;DHT22;26906;45.658;9.272;2022-09-09T10:37:26;29.40;99.90
41168;DHT22;26906;45.658;9.272;2022-09-09T10:40:02;29.40;99.90
41168;DHT22;26906;45.658;9.272;2022-09-09T10:42:31;29.20;99.90
41168;DHT22;26906;45.658;9.272;2022-09-09T10:50:50;29.90;99.90
41168;DHT22;26906;45.658;9.272;2022-09-09T10:55:58;29.80;99.90
41168;DHT22;26906;45.658;9.272;2022-09-09T10:58:30;29.50;99.90
41168;DHT22;26906;45.658;9.272;2022-09-09T11:01:24;29.00;99.90
41168;DHT22;26906;45.658;9.272;2022-09-09T11:03:54;28.70;99.90
41168;DHT22;26906;45.658;9.272;2022-09-09T11:06:25;29.10;99.90
41168;DHT22;26906;45.658;9.272;2022-09-09T11:08:53;29.50;99.90
41168;DHT22;26906;45.658;9.272;2022-09-09T11:11:42;29.40;99.90
41168;DHT22;26906;45.658;9.272;2022-09-09T11:14:12;29.90;99.90
41168;DHT22;26906;45.658;9.272;2022-09-09T11:16:49;29.40;99.90
41168;DHT22;26906;45.658;9.272;2022-09-09T11:19:41;29.30;99.90
41168;DHT22;26906;45.658;9.272;2022-09-09T11:25:00;30.20;99.90
41168;DHT22;26906;45.658;9.272;2022-09-09T11:27:37;30.50;99.90
41168;DHT22;26906;45.658;9.272;2022-09-09T11:33:41;30.90;99.90
41168;DHT22;26906;45.658;9.272;2022-09-09T11:39:50;30.20;99.90
41168;DHT22;26906;45.658;9.272;2022-09-09T11:44:41;30.50;99.90
41168;DHT22;26906;45.658;9.272;2022-09-09T11:47:27;30.80;99.90
41168;DHT22;26906;45.658;9.272;2022-09-09T11:50:32;30.80;99.90
41168;DHT22;26906;45.658;9.272;2022-09-09T11:55:39;31.00;99.90
41168;DHT22;26906;45.658;9.272;2022-09-09T11:58:17;30.80;99.90
41168;DHT22;26906;45.658;9.272;2022-09-09T12:00:48;30.20;99.90
41168;DHT22;26906;45.658;9.272;2022-09-09T12:03:35;29.90;99.90
41168;DHT22;26906;45.658;9.272;2022-09-09T12:06:25;29.90;99.90
41168;DHT22;26906;45.658;9.272;2022-09-09T12:08:56;30.30;99.90
41168;DHT22;26906;45.658;9.272;2022-09-09T12:11:27;30.90;99.90
41168;DHT22;26906;45.658;9.272;2022-09-09T12:13:59;31.40;99.90
41168;DHT22;26906;45.658;9.272;2022-09-09T12:16:35;31.30;99.90
41168;DHT22;26906;45.658;9.272;2022-09-09T12:21:44;31.80;99.90
41168;DHT22;26906;45.658;9.272;2022-09-09T12:24:37;31.60;99.90
41168;DHT22;26906;45.658;9.272;2022-09-09T12:30:12;30.20;99.90
41168;DHT22;26906;45.658;9.272;2022-09-09T12:32:39;29.70;99.90
41168;DHT22;26906;45.658;9.272;2022-09-09T12:35:16;29.30;99.90
41168;DHT22;26906;45.658;9.272;2022-09-09T12:42:44;30.30;99.90
41168;DHT22;26906;45.658;9.272;2022-09-09T12:45:22;30.70;99.90
41168;DHT22;26906;45.658;9.272;2022-09-09T12:48:09;30.20;99.90
41168;DHT22;26906;45.658;9.272;2022-09-09T12:50:50;30.40;99.90
41168;DHT22;26906;45.658;9.272;2022-09-09T12:56:02;31.10;99.90
41168;DHT22;26906;45.658;9.272;2022-09-09T12:58:29;31.10;99.90
41168;DHT22;26906;45.658;9.272;2022-09-09T13:00:59;31.20;99.90
41168;DHT22;26906;45.658;9.272;2022-09-09T13:03:26;31.10;99.90
41168;DHT22;26906;45.658;9.272;2022-09-09T13:05:53;31.30;99.90
41168;DHT22;26906;45.658;9.272;2022-09-09T13:08:31;31.20;99.90
41168;DHT22;26906;45.658;9.272;2022-09-09T13:11:00;31.30;99.90
41168;DHT22;26906;45.658;9.272;2022-09-09T13:13:42;31.10;99.90
41168;DHT22;26906;45.658;9.272;2022-09-09T13:16:32;30.90;99.90
41168;DHT22;26906;45.658;9.272;2022-09-09T13:19:17;30.70;99.90
41168;DHT22;26906;45.658;9.272;2022-09-09T13:21:42;30.90;99.90
41168;DHT22;26906;45.658;9.272;2022-09-09T13:27:50;31.20;99.90
41168;DHT22;26906;45.658;9.272;2022-09-09T13:29:53;31.30;99.90
41168;DHT22;26906;45.658;9.272;2022-09-09T13:32:24;31.10;99.90
41168;DHT22;26906;45.658;9.272;2022-09-09T13:34:51;31.10;99.90
41168;DHT22;26906;45.658;9.272;2022-09-09T13:37:33;31.30;99.90
41168;DHT22;26906;45.658;9.272;2022-09-09T13:40:01;31.30;99.90
41168;DHT22;26906;45.658;9.272;2022-09-09T13:42:33;31.20;99.90
41168;DHT22;26906;45.658;9.272;2022-09-09T13:45:01;31.00;99.90
41168;DHT22;26906;45.658;9.272;2022-09-09T13:47:34;30.90;99.90
41168;DHT22;26906;45.658;9.272;2022-09-09T13:50:29;31.00;99.90
41168;DHT22;26906;45.658;9.272;2022-09-09T13:52:57;30.70;99.90
41168;DHT22;26906;45.658;9.272;2022-09-09T13:55:27;30.20;99.90
41168;DHT22;26906;45.658;9.272;2022-09-09T13:57:58;29.80;99.90
41168;DHT22;26906;45.658;9.272;2022-09-09T14:00:26;29.70;99.90
41168;DHT22;26906;45.658;9.272;2022-09-09T14:02:54;30.00;99.90
41168;DHT22;26906;45.658;9.272;2022-09-09T14:05:20;30.40;99.90
41168;DHT22;26906;45.658;9.272;2022-09-09T14:07:48;30.70;99.90
41168;DHT22;26906;45.658;9.272;2022-09-09T14:10:14;30.90;99.90
41168;DHT22;26906;45.658;9.272;2022-09-09T14:12:39;30.90;99.90
41168;DHT22;26906;45.658;9.272;2022-09-09T14:15:06;30.80;99.90
41168;DHT22;26906;45.658;9.272;2022-09-09T14:17:33;31.00;99.90
41168;DHT22;26906;45.658;9.272;2022-09-09T14:19:58;31.10;99.90
41168;DHT22;26906;45.658;9.272;2022-09-09T14:22:25;31.20;99.90
41168;DHT22;26906;45.658;9.272;2022-09-09T14:24:51;31.00;99.90
41168;DHT22;26906;45.658;9.272;2022-09-09T14:27:17;30.90;99.90
41168;DHT22;26906;45.658;9.272;2022-09-09T14:29:44;31.10;99.90
41168;DHT22;26906;45.658;9.272;2022-09-09T14:32:11;31.10;99.90
41168;DHT22;26906;45.658;9.272;2022-09-09T14:34:38;31.00;99.90
41168;DHT22;26906;45.658;9.272;2022-09-09T14:37:06;31.00;99.90
41168;DHT22;26906;45.658;9.272;2022-09-09T14:39:32;30.90;99.90
41168;DHT22;26906;45.658;9.272;2022-09-09T14:41:58;30.90;99.90
41168;DHT22;26906;45.658;9.272;2022-09-09T14:44:24;30.90;99.90
41168;DHT22;26906;45.658;9.272;2022-09-09T14:46:50;30.70;99.90
41168;DHT22;26906;45.658;9.272;2022-09-09T14:49:16;30.60;99.90
41168;DHT22;26906;45.658;9.272;2022-09-09T14:51:44;30.70;99.90
41168;DHT22;26906;45.658;9.272;2022-09-09T14:54:10;30.70;99.90
41168;DHT22;26906;45.658;9.272;2022-09-09T14:56:36;30.50;99.90
41168;DHT22;26906;45.658;9.272;2022-09-09T14:59:02;30.50;99.90
41168;DHT22;26906;45.658;9.272;2022-09-09T15:01:29;30.70;99.90
41168;DHT22;26906;45.658;9.272;2022-09-09T15:03:59;30.70;99.90
41168;DHT22;26906;45.658;9.272;2022-09-09T15:06:28;30.70;99.90
41168;DHT22;26906;45.658;9.272;2022-09-09T15:08:55;30.70;99.90
41168;DHT22;26906;45.658;9.272;2022-09-09T15:11:23;30.60;99.90
41168;DHT22;26906;45.658;9.272;2022-09-09T15:13:54;30.40;99.90
41168;DHT22;26906;45.658;9.272;2022-09-09T15:16:23;30.30;99.90
41168;DHT22;26906;45.658;9.272;2022-09-09T15:18:54;30.20;99.90
41168;DHT22;26906;45.658;9.272;2022-09-09T15:21:24;30.00;99.90
41168;DHT22;26906;45.658;9.272;2022-09-09T15:23:50;30.10;99.90
41168;DHT22;26906;45.658;9.272;2022-09-09T15:26:17;30.00;99.90
41168;DHT22;26906;45.658;9.272;2022-09-09T15:28:44;30.00;99.90
41168;DHT22;26906;45.658;9.272;2022-09-09T15:31:15;30.00;99.90
41168;DHT22;26906;45.658;9.272;2022-09-09T15:33:53;29.90;99.90
41168;DHT22;26906;45.658;9.272;2022-09-09T15:36:29;30.00;99.90
41168;DHT22;26906;45.658;9.272;2022-09-09T15:38:55;29.90;99.90
41168;DHT22;26906;45.658;9.272;2022-09-09T15:41:21;29.90;99.90
41168;DHT22;26906;45.658;9.272;2022-09-09T15:43:55;29.90;99.90
41168;DHT22;26906;45.658;9.272;2022-09-09T15:48:51;30.10;99.90
41168;DHT22;26906;45.658;9.272;2022-09-09T15:51:17;30.00;99.90
41168;DHT22;26906;45.658;9.272;2022-09-09T15:53:44;30.20;99.90
41168;DHT22;26906;45.658;9.272;2022-09-09T15:56:10;30.10;99.90
41168;DHT22;26906;45.658;9.272;2022-09-09T15:58:36;30.00;99.90
41168;DHT22;26906;45.658;9.272;2022-09-09T16:01:06;29.90;99.90
41168;DHT22;26906;45.658;9.272;2022-09-09T16:03:42;29.90;99.90
41168;DHT22;26906;45.658;9.272;2022-09-09T16:06:09;29.80;99.90
41168;DHT22;26906;45.658;9.272;2022-09-09T16:08:35;29.80;99.90
41168;DHT22;26906;45.658;9.272;2022-09-09T16:11:13;29.60;99.90
41168;DHT22;26906;45.658;9.272;2022-09-09T16:13:43;29.40;99.90
41168;DHT22;26906;45.658;9.272;2022-09-09T16:16:11;29.40;99.90
41168;DHT22;26906;45.658;9.272;2022-09-09T16:18:41;29.40;99.90
41168;DHT22;26906;45.658;9.272;2022-09-09T16:21:15;29.20;99.90
41168;DHT22;26906;45.658;9.272;2022-09-09T16:23:41;29.10;99.90
41168;DHT22;26906;45.658;9.272;2022-09-09T16:26:10;28.90;99.90
41168;DHT22;26906;45.658;9.272;2022-09-09T16:28:36;29.00;99.90
41168;DHT22;26906;45.658;9.272;2022-09-09T16:31:08;29.00;99.90
41168;DHT22;26906;45.658;9.272;2022-09-09T16:33:36;28.90;99.90
41168;DHT22;26906;45.658;9.272;2022-09-09T16:36:06;28.90;99.90
41168;DHT22;26906;45.658;9.272;2022-09-09T16:38:32;28.90;99.90
41168;DHT22;26906;45.658;9.272;2022-09-09T16:41:02;29.00;99.90
41168;DHT22;26906;45.658;9.272;2022-09-09T16:43:28;29.00;99.90
41168;DHT22;26906;45.658;9.272;2022-09-09T16:45:54;29.00;99.90
41168;DHT22;26906;45.658;9.272;2022-09-09T16:48:20;28.90;99.90
41168;DHT22;26906;45.658;9.272;2022-09-09T16:50:47;28.70;99.90
41168;DHT22;26906;45.658;9.272;2022-09-09T16:53:14;28.50;99.90
41168;DHT22;26906;45.658;9.272;2022-09-09T16:55:41;28.60;99.90
41168;DHT22;26906;45.658;9.272;2022-09-09T16:58:07;28.40;99.90
41168;DHT22;26906;45.658;9.272;2022-09-09T17:00:34;28.40;99.90
41168;DHT22;26906;45.658;9.272;2022-09-09T17:03:00;28.20;99.90
41168;DHT22;26906;45.658;9.272;2022-09-09T17:05:26;28.20;99.90
41168;DHT22;26906;45.658;9.272;2022-09-09T17:07:52;28.10;99.90
41168;DHT22;26906;45.658;9.272;2022-09-09T17:10:19;28.30;99.90
41168;DHT22;26906;45.658;9.272;2022-09-09T17:12:44;28.30;99.90
41168;DHT22;26906;45.658;9.272;2022-09-09T17:15:11;28.40;99.90
41168;DHT22;26906;45.658;9.272;2022-09-09T17:17:37;28.30;99.90
41168;DHT22;26906;45.658;9.272;2022-09-09T17:20:03;28.00;99.90
41168;DHT22;26906;45.658;9.272;2022-09-09T17:22:29;27.70;99.90
41168;DHT22;26906;45.658;9.272;2022-09-09T17:24:55;27.70;99.90
41168;DHT22;26906;45.658;9.272;2022-09-09T17:27:21;27.70;99.90
41168;DHT22;26906;45.658;9.272;2022-09-09T17:29:46;27.60;99.90
41168;DHT22;26906;45.658;9.272;2022-09-09T17:32:12;27.60;99.90
41168;DHT22;26906;45.658;9.272;2022-09-09T17:34:38;27.40;99.90
41168;DHT22;26906;45.658;9.272;2022-09-09T17:37:04;27.30;99.90
41168;DHT22;26906;45.658;9.272;2022-09-09T17:39:31;27.20;99.90
41168;DHT22;26906;45.658;9.272;2022-09-09T17:41:57;27.10;99.90
41168;DHT22;26906;45.658;9.272;2022-09-09T17:44:23;27.00;99.90
41168;DHT22;26906;45.658;9.272;2022-09-09T17:46:49;26.80;99.90
41168;DHT22;26906;45.658;9.272;2022-09-09T17:49:16;26.80;99.90
41168;DHT22;26906;45.658;9.272;2022-09-09T17:51:45;26.70;99.90
41168;DHT22;26906;45.658;9.272;2022-09-09T17:54:16;26.50;99.90
41168;DHT22;26906;45.658;9.272;2022-09-09T17:56:44;26.40;99.90
41168;DHT22;26906;45.658;9.272;2022-09-09T17:59:10;26.40;99.90
41168;DHT22;26906;45.658;9.272;2022-09-09T18:01:39;26.30;99.90
41168;DHT22;26906;45.658;9.272;2022-09-09T18:04:08;26.20;99.90
41168;DHT22;26906;45.658;9.272;2022-09-09T18:06:43;26.20;99.90
41168;DHT22;26906;45.658;9.272;2022-09-09T18:09:15;26.20;99.90
41168;DHT22;26906;45.658;9.272;2022-09-09T18:11:44;26.10;99.90
41168;DHT22;26906;45.658;9.272;2022-09-09T18:14:12;26.00;99.90
41168;DHT22;26906;45.658;9.272;2022-09-09T18:16:39;25.90;99.90
41168;DHT22;26906;45.658;9.272;2022-09-09T18:19:07;26.00;99.90
41168;DHT22;26906;45.658;9.272;2022-09-09T18:21:34;25.90;99.90
41168;DHT22;26906;45.658;9.272;2022-09-09T18:24:02;25.80;99.90
41168;DHT22;26906;45.658;9.272;2022-09-09T18:26:29;25.60;99.90
41168;DHT22;26906;45.658;9.272;2022-09-09T18:28:59;25.50;99.90
41168;DHT22;26906;45.658;9.272;2022-09-09T18:31:27;25.70;99.90
41168;DHT22;26906;45.658;9.272;2022-09-09T18:33:54;25.70;99.90
41168;DHT22;26906;45.658;9.272;2022-09-09T18:36:27;25.70;99.90
41168;DHT22;26906;45.658;9.272;2022-09-09T18:38:53;25.70;99.90
41168;DHT22;26906;45.658;9.272;2022-09-09T18:41:29;25.70;99.90
41168;DHT22;26906;45.658;9.272;2022-09-09T18:44:02;25.70;99.90
41168;DHT22;26906;45.658;9.272;2022-09-09T18:46:31;25.70;99.90
41168;DHT22;26906;45.658;9.272;2022-09-09T18:48:57;25.70;99.90
41168;DHT22;26906;45.658;9.272;2022-09-09T18:51:26;25.70;99.90
41168;DHT22;26906;45.658;9.272;2022-09-09T18:54:04;25.80;99.90
41168;DHT22;26906;45.658;9.272;2022-09-09T18:56:30;25.90;99.90
41168;DHT22;26906;45.658;9.272;2022-09-09T18:58:58;25.90;99.90
41168;DHT22;26906;45.658;9.272;2022-09-09T19:01:25;25.80;99.90
41168;DHT22;26906;45.658;9.272;2022-09-09T19:03:51;25.80;99.90
41168;DHT22;26906;45.658;9.272;2022-09-09T19:06:19;25.70;99.90
41168;DHT22;26906;45.658;9.272;2022-09-09T19:08:46;25.70;99.90
41168;DHT22;26906;45.658;9.272;2022-09-09T19:11:17;25.70;99.90
41168;DHT22;26906;45.658;9.272;2022-09-09T19:13:51;25.70;99.90
41168;DHT22;26906;45.658;9.272;2022-09-09T19:16:18;25.70;99.90
41168;DHT22;26906;45.658;9.272;2022-09-09T19:18:44;25.60;99.90
41168;DHT22;26906;45.658;9.272;2022-09-09T19:21:17;25.60;99.90
41168;DHT22;26906;45.658;9.272;2022-09-09T19:23:44;25.50;99.90
41168;DHT22;26906;45.658;9.272;2022-09-09T19:26:12;25.40;99.90
41168;DHT22;26906;45.658;9.272;2022-09-09T19:28:41;25.30;99.90
41168;DHT22;26906;45.658;9.272;2022-09-09T19:31:08;25.30;99.90
41168;DHT22;26906;45.658;9.272;2022-09-09T19:33:35;25.20;99.90
41168;DHT22;26906;45.658;9.272;2022-09-09T19:36:04;25.20;99.90
41168;DHT22;26906;45.658;9.272;2022-09-09T19:38:31;25.20;99.90
41168;DHT22;26906;45.658;9.272;2022-09-09T19:41:14;25.20;99.90
41168;DHT22;26906;45.658;9.272;2022-09-09T19:43:40;25.20;99.90
41168;DHT22;26906;45.658;9.272;2022-09-09T19:46:08;25.30;99.90
41168;DHT22;26906;45.658;9.272;2022-09-09T19:48:37;25.30;99.90
41168;DHT22;26906;45.658;9.272;2022-09-09T19:51:10;25.40;99.90
41168;DHT22;26906;45.658;9.272;2022-09-09T19:53:41;25.50;99.90
41168;DHT22;26906;45.658;9.272;2022-09-09T19:56:07;25.40;99.90
41168;DHT22;26906;45.658;9.272;2022-09-09T19:58:37;25.30;99.90
41168;DHT22;26906;45.658;9.272;2022-09-09T20:01:06;25.30;99.90
41168;DHT22;26906;45.658;9.272;2022-09-09T20:03:33;25.30;99.90
41168;DHT22;26906;45.658;9.272;2022-09-09T20:05:59;25.00;99.90
41168;DHT22;26906;45.658;9.272;2022-09-09T20:08:25;25.00;99.90
41168;DHT22;26906;45.658;9.272;2022-09-09T20:10:52;24.90;99.90
41168;DHT22;26906;45.658;9.272;2022-09-09T20:13:19;24.80;99.90
41168;DHT22;26906;45.658;9.272;2022-09-09T20:15:46;24.90;99.90
41168;DHT22;26906;45.658;9.272;2022-09-09T20:18:11;24.80;99.90
41168;DHT22;26906;45.658;9.272;2022-09-09T20:20:41;24.60;99.90
41168;DHT22;26906;45.658;9.272;2022-09-09T20:23:08;24.60;99.90
41168;DHT22;26906;45.658;9.272;2022-09-09T20:25:37;24.60;99.90
41168;DHT22;26906;45.658;9.272;2022-09-09T20:28:03;24.50;99.90
41168;DHT22;26906;45.658;9.272;2022-09-09T20:30:29;24.60;99.90
41168;DHT22;26906;45.658;9.272;2022-09-09T20:32:55;24.70;99.90
41168;DHT22;26906;45.658;9.272;2022-09-09T20:35:21;24.70;99.90
41168;DHT22;26906;45.658;9.272;2022-09-09T20:37:47;24.60;99.90
41168;DHT22;26906;45.658;9.272;2022-09-09T20:40:12;24.50;99.90
41168;DHT22;26906;45.658;9.272;2022-09-09T20:42:38;24.40;99.90
41168;DHT22;26906;45.658;9.272;2022-09-09T20:45:04;24.40;99.90
41168;DHT22;26906;45.658;9.272;2022-09-09T20:47:31;24.40;99.90
41168;DHT22;26906;45.658;9.272;2022-09-09T20:49:57;24.60;99.90
41168;DHT22;26906;45.658;9.272;2022-09-09T20:52:23;24.50;99.90
41168;DHT22;26906;45.658;9.272;2022-09-09T20:54:49;24.60;99.90
41168;DHT22;26906;45.658;9.272;2022-09-09T20:57:15;24.60;99.90
41168;DHT22;26906;45.658;9.272;2022-09-09T20:59:46;24.50;99.90
41168;DHT22;26906;45.658;9.272;2022-09-09T21:02:16;24.50;99.90
41168;DHT22;26906;45.658;9.272;2022-09-09T21:04:43;24.50;99.90
41168;DHT22;26906;45.658;9.272;2022-09-09T21:07:09;24.50;99.90
41168;DHT22;26906;45.658;9.272;2022-09-09T21:09:35;24.50;99.90
41168;DHT22;26906;45.658;9.272;2022-09-09T21:12:01;24.40;99.90
41168;DHT22;26906;45.658;9.272;2022-09-09T21:14:27;24.50;99.90
41168;DHT22;26906;45.658;9.272;2022-09-09T21:16:52;24.50;99.90
41168;DHT22;26906;45.658;9.272;2022-09-09T21:19:19;24.40;99.90
41168;DHT22;26906;45.658;9.272;2022-09-09T21:21:45;24.30;99.90
41168;DHT22;26906;45.658;9.272;2022-09-09T21:24:12;24.40;99.90
41168;DHT22;26906;45.658;9.272;2022-09-09T21:26:38;24.40;99.90
41168;DHT22;26906;45.658;9.272;2022-09-09T21:29:04;24.20;99.90
